Time;durP1;ratioP1;P1;durP2;ratioP2;P2;SDS_P1;SDS_P2;PMS_P1;PMS_P2;Temp;Humidity;BMP_temperature;BMP_pressure;BME280_temperature;BME280_humidity;BME280_pressure;Samples;Min_cycle;Max_cycle;Signal;HPM_P1;HPM_P2
2021/12/10 00:02:22;;;;;;;;;;;4.30;99.90;;;;;;6243318;22;19919;-80
2021/12/10 00:04:51;;;;;;;;;;;4.30;99.90;;;;;;6244364;22;20391;-80
2021/12/10 00:07:19;;;;;;;;;;;4.30;99.90;;;;;;6244211;22;19915;-81
2021/12/10 00:09:50;;;;;;;;;;;4.30;99.90;;;;;;6243854;22;19923;-80
2021/12/10 00:12:18;;;;;;;;;;;4.30;99.90;;;;;;6245000;22;19937;-81
2021/12/10 00:14:44;;;;;;;;;;;4.30;99.90;;;;;;6244006;22;19923;-80
2021/12/10 00:17:11;;;;;;;;;;;4.30;99.90;;;;;;6244031;22;19928;-80
2021/12/10 00:19:46;;;;;;;;;;;4.30;99.90;;;;;;6245044;22;20014;-79
2021/12/10 00:22:14;;;;;;;;;;;4.40;99.90;;;;;;6244750;22;19950;-80
2021/12/10 00:24:40;;;;;;;;;;;4.30;99.90;;;;;;6244118;22;19951;-81
2021/12/10 00:27:07;;;;;;;;;;;4.30;99.90;;;;;;6243868;22;19919;-80
2021/12/10 00:29:34;;;;;;;;;;;4.30;99.90;;;;;;6244218;22;20527;-81
2021/12/10 00:32:04;;;;;;;;;;;4.30;99.90;;;;;;6242633;22;19930;-81
2021/12/10 00:34:35;;;;;;;;;;;4.30;99.90;;;;;;6245106;22;19973;-81
2021/12/10 00:37:03;;;;;;;;;;;4.30;99.90;;;;;;6244887;22;19919;-81
2021/12/10 00:39:31;;;;;;;;;;;4.30;99.90;;;;;;6245045;22;20360;-81
2021/12/10 00:41:58;;;;;;;;;;;4.30;99.90;;;;;;6244643;22;19922;-80
2021/12/10 00:47:04;;;;;;;;;;;4.30;99.90;;;;;;6271009;22;20335;-80
2021/12/10 00:53:10;;;;;;;;;;;4.70;99.90;;;;;;6243685;22;19969;-81
2021/12/10 00:55:36;;;;;;;;;;;3.70;99.90;;;;;;6243821;22;19919;-80
2021/12/10 00:58:03;;;;;;;;;;;6.10;99.90;;;;;;6248754;22;19926;-80
2021/12/10 01:00:31;;;;;;;;;;;4.30;99.90;;;;;;6259932;22;19923;-80
2021/12/10 01:03:28;;;;;;;;;;;4.30;99.90;;;;;;6249039;22;19923;-81
2021/12/10 01:06:05;;;;;;;;;;;;;;;;;;;;;
2021/12/10 01:08:31;;;;;;;;;;;4.30;99.90;;;;;;6243500;22;20458;-80
2021/12/10 01:11:04;;;;;;;;;;;4.30;99.90;;;;;;6271589;22;19965;-80
2021/12/10 01:13:33;;;;;;;;;;;4.30;99.90;;;;;;6243996;22;19959;-81
2021/12/10 01:25:23;;;;;;;;;;;4.30;99.90;;;;;;6243943;22;20115;-80
2021/12/10 01:27:49;;;;;;;;;;;4.30;99.90;;;;;;6243463;22;19927;-80
2021/12/10 01:30:21;;;;;;;;;;;4.30;99.90;;;;;;6240238;22;20238;-80
2021/12/10 01:36:08;;;;;;;;;;;4.30;99.90;;;;;;6122331;23;19968;-80
2021/12/10 01:38:35;;;;;;;;;;;4.30;99.90;;;;;;6122429;23;20342;-79
2021/12/10 01:43:39;;;;;;;;;;;4.30;99.90;;;;;;6260240;22;19919;-79
2021/12/10 01:46:50;;;;;;;;;;;4.30;99.90;;;;;;6239455;23;20080;-80
2021/12/10 01:54:53;;;;;;;;;;;4.30;99.90;;;;;;6242614;22;20665;-81
2021/12/10 01:57:34;;;;;;;;;;;;;;;;;;;;;
2021/12/10 02:00:13;;;;;;;;;;;6.50;99.90;;;;;;6239119;22;20316;-81
2021/12/10 02:09:30;;;;;;;;;;;2.90;99.90;;;;;;6269074;22;19907;-82
2021/12/10 02:11:56;;;;;;;;;;;2.80;99.90;;;;;;6243173;22;20312;-82
2021/12/10 02:14:37;;;;;;;;;;;4.10;99.90;;;;;;6243206;22;19984;-80
2021/12/10 02:17:03;;;;;;;;;;;4.30;99.90;;;;;;6241305;22;19919;-81
2021/12/10 02:22:00;;;;;;;;;;;5.40;99.90;;;;;;6272904;22;19919;-80
2021/12/10 02:24:25;;;;;;;;;;;4.50;99.90;;;;;;6242886;22;19926;-79
2021/12/10 02:40:49;;;;;;;;;;;4.10;99.90;;;;;;6268083;22;19908;-79
2021/12/10 02:43:31;;;;;;;;;;;2.70;99.90;;;;;;6237002;22;19974;-79
2021/12/10 02:48:38;;;;;;;;;;;4.30;99.90;;;;;;6259024;22;19911;-80
2021/12/10 02:51:05;;;;;;;;;;;4.10;99.90;;;;;;6218854;23;19963;-78
2021/12/10 02:53:44;;;;;;;;;;;4.20;99.90;;;;;;6233918;23;19923;-79
2021/12/10 02:59:32;;;;;;;;;;;4.30;99.90;;;;;;6239556;23;20466;-80
2021/12/10 03:11:14;;;;;;;;;;;5.10;99.90;;;;;;6247483;22;19920;-80
2021/12/10 03:13:41;;;;;;;;;;;4.20;99.90;;;;;;6211774;23;20038;-82
2021/12/10 03:19:35;;;;;;;;;;;2.70;99.90;;;;;;6239517;23;19978;-84
2021/12/10 03:22:07;;;;;;;;;;;3.10;99.90;;;;;;6213971;23;19927;-81
2021/12/10 03:28:33;;;;;;;;;;;4.40;99.90;;;;;;6085548;23;19917;-82
2021/12/10 07:14:23;;;;;;;;;;;2.90;99.90;;;;;;6273120;22;19920;-81
2021/12/10 07:20:22;;;;;;;;;;;0.10;99.90;;;;;;6243888;22;20002;-81
2021/12/10 07:22:51;;;;;;;;;;;2.80;99.90;;;;;;6243897;22;19942;-82
2021/12/10 08:07:32;;;;;;;;;;;1.20;99.90;;;;;;6250625;22;19920;-83
2021/12/10 08:17:44;;;;;;;;;;;2.20;99.90;;;;;;6270031;22;19919;-84
2021/12/10 08:20:12;;;;;;;;;;;2.00;99.90;;;;;;6245057;22;19925;-83
2021/12/10 08:22:38;;;;;;;;;;;3.30;99.90;;;;;;6243834;22;19923;-82
2021/12/10 08:25:04;;;;;;;;;;;2.10;99.90;;;;;;6244241;22;19930;-82
2021/12/10 08:33:27;;;;;;;;;;;2.20;99.90;;;;;;6282822;22;19919;-82
2021/12/10 08:39:03;;;;;;;;;;;2.20;99.90;;;;;;6243524;22;19927;-82
2021/12/10 08:41:58;;;;;;;;;;;2.20;99.90;;;;;;6244257;22;20057;-83
2021/12/10 08:44:36;;;;;;;;;;;3.20;99.90;;;;;;6244201;22;19977;-82
2021/12/10 08:50:26;;;;;;;;;;;3.30;99.90;;;;;;6270970;22;19929;-81
2021/12/10 08:53:08;;;;;;;;;;;2.20;99.90;;;;;;6265796;22;19927;-81
2021/12/10 08:55:35;;;;;;;;;;;2.30;99.90;;;;;;6244267;22;19920;-82
2021/12/10 09:10:38;;;;;;;;;;;2.50;99.90;;;;;;6259532;22;19917;-80
2021/12/10 09:13:14;;;;;;;;;;;2.50;99.90;;;;;;6212519;23;19919;-82
2021/12/10 09:16:23;;;;;;;;;;;2.60;99.90;;;;;;6211814;23;19920;-82
2021/12/10 09:25:42;;;;;;;;;;;1.80;99.90;;;;;;6238672;23;20017;-82
2021/12/10 09:28:08;;;;;;;;;;;3.00;99.90;;;;;;6213452;23;20322;-83
2021/12/10 09:34:21;;;;;;;;;;;3.60;99.90;;;;;;6239942;23;19918;-83
2021/12/10 09:36:48;;;;;;;;;;;3.00;99.90;;;;;;6212725;23;19920;-83
2021/12/10 09:51:55;;;;;;;;;;;4.30;99.90;;;;;;6252241;22;19946;-82
2021/12/10 09:54:26;;;;;;;;;;;3.20;99.90;;;;;;6213352;23;19942;-82
2021/12/10 10:00:34;;;;;;;;;;;5.00;99.90;;;;;;6238730;23;19985;-82
2021/12/10 10:06:18;;;;;;;;;;;5.00;99.90;;;;;;6212438;23;19923;-83
2021/12/10 10:08:57;;;;;;;;;;;5.70;99.90;;;;;;6211041;23;19920;-82
2021/12/10 10:23:34;;;;;;;;;;;10.00;99.90;;;;;;6253177;22;20120;-83
2021/12/10 10:26:04;;;;;;;;;;;11.30;96.50;;;;;;6233704;23;19919;-82
2021/12/10 10:37:03;;;;;;;;;;;11.10;82.40;;;;;;6239577;23;20344;-81
2021/12/10 10:39:47;;;;;;;;;;;10.30;85.90;;;;;;6212338;23;19919;-81
2021/12/10 10:54:33;;;;;;;;;;;10.40;82.80;;;;;;6258671;22;19920;-82
2021/12/10 10:57:13;;;;;;;;;;;10.20;89.70;;;;;;6216586;23;19919;-82
2021/12/10 11:12:06;;;;;;;;;;;10.60;95.40;;;;;;6269814;22;19953;-83
2021/12/10 11:15:06;;;;;;;;;;;10.80;92.70;;;;;;6241283;22;19938;-83
2021/12/10 11:17:56;;;;;;;;;;;11.80;91.50;;;;;;6233167;22;19954;-83
2021/12/10 11:20:49;;;;;;;;;;;10.70;80.30;;;;;;6242462;22;19931;-82
2021/12/10 11:23:41;;;;;;;;;;;9.50;88.50;;;;;;6242660;22;19946;-83
2021/12/10 11:26:07;;;;;;;;;;;9.00;92.70;;;;;;6242578;22;20001;-84
2021/12/10 11:28:42;;;;;;;;;;;7.70;95.60;;;;;;6243555;22;19988;-83
2021/12/10 11:31:32;;;;;;;;;;;5.70;95.50;;;;;;6241464;22;19919;-83
2021/12/10 11:34:16;;;;;;;;;;;6.80;98.20;;;;;;6243686;22;19931;-83
2021/12/10 11:36:57;;;;;;;;;;;6.40;99.90;;;;;;6242682;22;20268;-83
2021/12/10 11:42:55;;;;;;;;;;;5.80;99.90;;;;;;6278049;22;19989;-81
2021/12/10 11:48:53;;;;;;;;;;;5.60;99.90;;;;;;6276263;22;20061;-81
2021/12/10 11:55:07;;;;;;;;;;;5.40;99.90;;;;;;6139541;23;19915;-79
2021/12/10 11:57:40;;;;;;;;;;;5.20;99.90;;;;;;6153415;23;19948;-82
2021/12/10 12:03:36;;;;;;;;;;;5.20;99.90;;;;;;6181685;23;19998;-81
2021/12/10 12:06:04;;;;;;;;;;;3.80;99.90;;;;;;6230283;22;20363;-85
2021/12/10 12:08:35;;;;;;;;;;;5.10;99.90;;;;;;6244648;22;20302;-81
2021/12/10 12:11:33;;;;;;;;;;;5.10;99.90;;;;;;6244051;22;20461;-82
2021/12/10 12:14:29;;;;;;;;;;;6.00;99.90;;;;;;6138986;22;19923;-82
2021/12/10 12:16:56;;;;;;;;;;;5.40;99.90;;;;;;6248462;22;20022;-81
2021/12/10 12:19:29;;;;;;;;;;;5.30;99.90;;;;;;6263594;22;20311;-82
2021/12/10 12:25:28;;;;;;;;;;;4.80;99.90;;;;;;6224693;22;19919;-81
2021/12/10 12:28:12;;;;;;;;;;;4.80;99.90;;;;;;6240237;22;19923;-81
2021/12/10 12:36:12;;;;;;;;;;;4.80;99.90;;;;;;6239035;22;19920;-82
2021/12/10 12:38:42;;;;;;;;;;;4.80;99.90;;;;;;6214367;23;20256;-81
2021/12/10 12:43:45;;;;;;;;;;;4.80;99.90;;;;;;6239116;22;19920;-82
2021/12/10 12:46:32;;;;;;;;;;;7.30;99.90;;;;;;6212522;23;19926;-82
2021/12/10 12:49:19;;;;;;;;;;;4.70;99.90;;;;;;6212663;23;19930;-82
2021/12/10 12:52:05;;;;;;;;;;;4.80;99.90;;;;;;6213126;23;19920;-82
2021/12/10 12:54:43;;;;;;;;;;;5.50;99.90;;;;;;6213528;23;19983;-82
2021/12/10 12:57:33;;;;;;;;;;;4.80;99.90;;;;;;6213561;23;20320;-82
2021/12/10 13:00:10;;;;;;;;;;;4.60;99.90;;;;;;6212165;23;19920;-82
2021/12/10 13:02:53;;;;;;;;;;;4.60;99.90;;;;;;6212713;23;19928;-82
2021/12/10 13:05:19;;;;;;;;;;;4.60;99.90;;;;;;6212937;23;19927;-83
2021/12/10 13:08:02;;;;;;;;;;;4.50;99.90;;;;;;6212882;23;20246;-82
2021/12/10 13:10:28;;;;;;;;;;;4.50;99.90;;;;;;6212653;23;19924;-82
2021/12/10 13:13:09;;;;;;;;;;;4.50;99.90;;;;;;6212984;23;19942;-83
2021/12/10 13:15:50;;;;;;;;;;;4.50;99.90;;;;;;6210955;23;19919;-82
2021/12/10 13:25:15;;;;;;;;;;;4.90;99.90;;;;;;6239852;23;20307;-83
2021/12/10 13:27:40;;;;;;;;;;;2.20;99.90;;;;;;6212982;23;19920;-82
2021/12/10 13:30:32;;;;;;;;;;;4.30;99.90;;;;;;6211997;23;19951;-82
2021/12/10 13:32:58;;;;;;;;;;;4.20;99.90;;;;;;6205092;23;19919;-82
2021/12/10 13:35:26;;;;;;;;;;;4.30;99.90;;;;;;6211996;23;20336;-82
2021/12/10 13:37:54;;;;;;;;;;;4.30;99.90;;;;;;6210471;23;20437;-83
2021/12/10 13:40:19;;;;;;;;;;;4.30;99.90;;;;;;6210630;23;19993;-82
2021/12/10 13:42:45;;;;;;;;;;;4.30;99.90;;;;;;6231947;22;19923;-83
2021/12/10 13:45:12;;;;;;;;;;;4.20;99.90;;;;;;6248346;22;19923;-81
2021/12/10 13:53:12;;;;;;;;;;;4.20;99.90;;;;;;6247793;22;20233;-82
2021/12/10 13:55:52;;;;;;;;;;;4.10;99.90;;;;;;6248681;22;19919;-83
2021/12/10 13:58:22;;;;;;;;;;;3.70;99.90;;;;;;6248780;22;20045;-83
2021/12/10 14:04:12;;;;;;;;;;;4.00;99.90;;;;;;6244187;22;20189;-82
2021/12/10 14:06:38;;;;;;;;;;;4.00;99.90;;;;;;6242464;22;20005;-84
2021/12/10 14:09:10;;;;;;;;;;;4.00;99.90;;;;;;6244685;22;20294;-81
2021/12/10 14:11:57;;;;;;;;;;;3.80;99.90;;;;;;6260175;22;19927;-82
2021/12/10 14:14:34;;;;;;;;;;;3.70;99.90;;;;;;6251180;22;19954;-82
2021/12/10 14:17:02;;;;;;;;;;;3.70;99.90;;;;;;6242195;22;19923;-82
2021/12/10 14:19:36;;;;;;;;;;;3.70;99.90;;;;;;6243396;22;20229;-82
2021/12/10 14:22:03;;;;;;;;;;;3.60;99.90;;;;;;6242400;22;20253;-82
2021/12/10 14:24:33;;;;;;;;;;;3.60;99.90;;;;;;6243109;22;20003;-82
2021/12/10 14:27:23;;;;;;;;;;;3.60;99.90;;;;;;6242635;22;19950;-82
2021/12/10 14:30:09;;;;;;;;;;;3.50;99.90;;;;;;6226845;22;19973;-82
2021/12/10 14:32:35;;;;;;;;;;;3.50;99.90;;;;;;6243604;22;19919;-82
2021/12/10 14:35:06;;;;;;;;;;;3.40;99.90;;;;;;6243595;22;19923;-82
2021/12/10 14:37:52;;;;;;;;;;;3.40;99.90;;;;;;6243226;22;19998;-82
2021/12/10 14:40:24;;;;;;;;;;;3.30;99.90;;;;;;6241396;22;20220;-82
2021/12/10 14:43:19;;;;;;;;;;;3.40;99.90;;;;;;6242776;22;20177;-82
2021/12/10 14:46:03;;;;;;;;;;;3.20;99.90;;;;;;6208798;22;19920;-82
2021/12/10 14:48:28;;;;;;;;;;;3.20;99.90;;;;;;6242009;22;20007;-81
2021/12/10 14:51:04;;;;;;;;;;;3.10;99.90;;;;;;6243497;22;20014;-82
2021/12/10 14:53:45;;;;;;;;;;;3.10;99.90;;;;;;6242544;22;20275;-80
2021/12/10 14:56:14;;;;;;;;;;;3.00;99.90;;;;;;6241174;22;20463;-81
2021/12/10 14:58:39;;;;;;;;;;;3.00;99.90;;;;;;6242165;22;19923;-82
2021/12/10 15:01:13;;;;;;;;;;;2.90;99.90;;;;;;6241665;22;20010;-82
2021/12/10 15:03:40;;;;;;;;;;;2.90;99.90;;;;;;6242437;22;19961;-82
2021/12/10 15:06:08;;;;;;;;;;;2.80;99.90;;;;;;6243819;22;19919;-83
2021/12/10 15:08:56;;;;;;;;;;;2.70;99.90;;;;;;6242413;22;19926;-82
2021/12/10 15:11:34;;;;;;;;;;;2.70;99.90;;;;;;6242250;22;19919;-82
2021/12/10 15:14:26;;;;;;;;;;;2.70;99.90;;;;;;6243280;22;20247;-83
2021/12/10 15:17:12;;;;;;;;;;;2.60;99.90;;;;;;6235193;22;19999;-83
2021/12/10 15:19:40;;;;;;;;;;;2.50;99.90;;;;;;6242818;22;19927;-82
2021/12/10 15:22:07;;;;;;;;;;;2.50;99.90;;;;;;6244709;22;20328;-82
2021/12/10 15:24:42;;;;;;;;;;;2.40;99.90;;;;;;6244133;22;19947;-82
2021/12/10 15:27:10;;;;;;;;;;;2.40;99.90;;;;;;6245263;22;19986;-83
2021/12/10 15:29:45;;;;;;;;;;;2.30;99.90;;;;;;6244880;22;19990;-83
2021/12/10 15:32:16;;;;;;;;;;;2.20;99.90;;;;;;6243288;22;19915;-82
2021/12/10 15:34:55;;;;;;;;;;;2.20;99.90;;;;;;6245090;22;20423;-82
2021/12/10 15:37:22;;;;;;;;;;;2.20;99.90;;;;;;6244252;22;20304;-82
2021/12/10 15:39:50;;;;;;;;;;;2.20;99.90;;;;;;6244068;22;19965;-82
2021/12/10 15:42:18;;;;;;;;;;;2.10;99.90;;;;;;6243741;22;19923;-82
2021/12/10 15:47:33;;;;;;;;;;;2.10;99.90;;;;;;6280459;22;20354;-82
2021/12/10 15:50:13;;;;;;;;;;;2.00;99.90;;;;;;6244232;22;19919;-82
2021/12/10 15:56:09;;;;;;;;;;;2.00;99.90;;;;;;6244644;22;19923;-81
2021/12/10 15:58:35;;;;;;;;;;;2.00;99.90;;;;;;6243669;22;19926;-82
2021/12/10 16:04:11;;;;;;;;;;;1.90;99.90;;;;;;6256861;22;19919;-82
2021/12/10 16:06:37;;;;;;;;;;;1.90;99.90;;;;;;6258563;22;19925;-82
2021/12/10 16:09:18;;;;;;;;;;;1.60;99.90;;;;;;6249215;22;19965;-82
2021/12/10 16:11:45;;;;;;;;;;;2.70;99.90;;;;;;6244998;22;19973;-83
2021/12/10 16:17:47;;;;;;;;;;;1.80;99.90;;;;;;6247795;22;19994;-82
2021/12/10 16:20:22;;;;;;;;;;;1.90;99.90;;;;;;6212981;23;19941;-82
2021/12/10 16:22:48;;;;;;;;;;;1.70;99.90;;;;;;6214262;23;19919;-82
2021/12/10 16:25:15;;;;;;;;;;;1.60;99.90;;;;;;6216630;23;19959;-82
2021/12/10 16:27:48;;;;;;;;;;;1.60;99.90;;;;;;6214341;23;19919;-82
2021/12/10 16:36:05;;;;;;;;;;;1.40;99.90;;;;;;6250598;22;19920;-82
2021/12/10 17:06:24;;;;;;;;;;;0.90;99.90;;;;;;6260817;22;19995;-81
2021/12/10 17:15:50;;;;;;;;;;;0.80;99.90;;;;;;6237908;23;19907;-81
2021/12/10 17:21:47;;;;;;;;;;;0.60;99.90;;;;;;6240389;23;19923;-81
2021/12/10 17:30:16;;;;;;;;;;;0.50;99.90;;;;;;6269520;22;19923;-83
2021/12/10 17:48:10;;;;;;;;;;;0.20;99.90;;;;;;6271726;22;19927;-81
2021/12/10 18:02:44;;;;;;;;;;;0.80;99.90;;;;;;6259100;22;19926;-80
2021/12/10 18:05:25;;;;;;;;;;;0.10;99.90;;;;;;6211415;23;19955;-81
2021/12/10 18:07:51;;;;;;;;;;;0.10;99.90;;;;;;6213280;23;19991;-81
2021/12/10 18:10:20;;;;;;;;;;;0.10;99.90;;;;;;6212717;23;20228;-81
2021/12/10 18:13:03;;;;;;;;;;;-0.20;99.90;;;;;;6212246;23;19951;-81
